createdAt,value
2024-05-09T00:13:51.462Z,1.48
2024-05-09T00:28:50.486Z,1.48
2024-05-09T00:43:50.749Z,1.50
2024-05-09T00:58:51.040Z,1.90
2024-05-09T01:13:51.435Z,1.73
2024-05-09T01:28:51.622Z,1.80
2024-05-09T01:43:52.033Z,1.90
2024-05-09T01:58:52.418Z,1.93
2024-05-09T02:13:52.618Z,2.80
2024-05-09T02:28:55.473Z,2.50
2024-05-09T02:43:55.116Z,2.30
2024-05-09T02:58:53.723Z,2.30
2024-05-09T03:13:53.952Z,2.35
2024-05-09T03:28:56.821Z,1.98
2024-05-09T03:43:54.533Z,2.03
2024-05-09T03:58:54.845Z,2.48
2024-05-09T04:13:55.212Z,2.75
2024-05-09T04:28:55.512Z,2.40
2024-05-09T04:43:55.872Z,2.83
2024-05-09T04:58:56.144Z,2.60
2024-05-09T05:13:56.460Z,2.53
2024-05-09T05:28:56.737Z,2.35
2024-05-09T05:43:59.122Z,2.40
2024-05-09T05:58:57.394Z,1.60
2024-05-09T06:13:57.820Z,1.90
2024-05-09T06:28:58.121Z,1.78
2024-05-09T06:43:58.361Z,1.68
2024-05-09T06:58:58.688Z,1.43
2024-05-09T07:13:59.110Z,1.10
2024-05-09T07:28:59.265Z,1.15
2024-05-09T07:43:59.727Z,1.00
2024-05-09T07:59:00.000Z,1.38
2024-05-09T08:14:00.197Z,1.20
2024-05-09T08:29:00.466Z,0.95
2024-05-09T08:44:00.793Z,1.10
2024-05-09T08:59:01.116Z,1.45
2024-05-09T09:14:01.469Z,1.08
2024-05-09T09:29:01.794Z,1.00
2024-05-09T09:44:02.059Z,1.38
2024-05-09T09:59:02.452Z,1.20
2024-05-09T10:14:06.800Z,1.13
2024-05-09T10:29:03.042Z,0.97
2024-05-09T10:44:03.338Z,1.33
2024-05-09T10:59:03.686Z,1.13
2024-05-09T11:14:04.038Z,1.13
2024-05-09T11:29:04.264Z,1.50
2024-05-09T11:44:04.603Z,1.18
2024-05-09T11:59:04.972Z,1.43
2024-05-09T12:14:05.237Z,1.95
2024-05-09T12:29:05.546Z,1.65
2024-05-09T12:44:05.867Z,1.70
2024-05-09T12:59:06.253Z,1.53
2024-05-09T13:14:06.517Z,1.53
2024-05-09T13:29:06.865Z,1.93
2024-05-09T13:59:07.474Z,2.20
2024-05-09T14:14:07.837Z,2.07
2024-05-09T14:29:08.147Z,1.73
2024-05-09T14:44:08.431Z,2.20
2024-05-09T14:59:08.761Z,1.60
2024-05-09T15:14:08.988Z,1.43
2024-05-09T15:29:09.388Z,1.30
2024-05-09T15:44:09.701Z,1.33
2024-05-09T15:59:11.112Z,1.60
2024-05-09T16:14:10.383Z,1.90
2024-05-09T16:29:10.725Z,1.65
2024-05-09T16:44:11.041Z,1.55
2024-05-09T16:59:11.340Z,1.40
2024-05-09T17:14:13.394Z,1.10
2024-05-09T17:29:12.805Z,1.50
2024-05-09T17:59:12.588Z,1.20
2024-05-09T18:14:15.373Z,2.70
2024-05-09T18:29:13.227Z,2.10
2024-05-09T18:44:13.491Z,2.17
2024-05-09T18:59:13.807Z,2.07
2024-05-09T19:14:14.141Z,2.33
2024-05-09T19:29:14.505Z,1.77
2024-05-09T19:44:14.876Z,4.13
2024-05-09T19:59:15.147Z,2.20
2024-05-09T20:29:17.185Z,2.80
2024-05-09T20:59:16.372Z,2.00
2024-05-09T21:14:16.713Z,1.90
2024-05-09T21:29:17.060Z,2.18
2024-05-09T21:44:17.311Z,5.75
2024-05-09T21:59:17.670Z,5.38
2024-05-09T22:14:17.994Z,5.10
2024-05-09T22:29:18.270Z,6.20
2024-05-09T22:44:18.591Z,7.65
2024-05-09T22:59:18.896Z,6.45
2024-05-09T23:14:19.220Z,5.25
2024-05-09T23:29:19.589Z,5.68
2024-05-09T23:44:21.000Z,6.05
2024-05-09T23:59:21.543Z,5.80
